Time;durP1;ratioP1;P1;durP2;ratioP2;P2;SDS_P1;SDS_P2;PMS_P1;PMS_P2;Temp;Humidity;BMP_temperature;BMP_pressure;BME280_temperature;BME280_humidity;BME280_pressure;Samples;Min_cycle;Max_cycle;Signal;HPM_P1;HPM_P2
2022/06/29 00:01:23;;;;;;;8.70;4.90;;;14.90;1.00;;;;;;6214743;23;20399;-87
2022/06/29 00:03:51;;;;;;;6.23;5.10;;;14.90;1.00;;;;;;6214984;23;20174;-87
2022/06/29 00:06:20;;;;;;;5.95;4.90;;;14.80;1.00;;;;;;6215459;23;20185;-87
2022/06/29 00:08:47;;;;;;;7.60;4.67;;;14.80;1.00;;;;;;6215349;23;20166;-86
2022/06/29 00:11:14;;;;;;;5.60;4.70;;;14.70;1.00;;;;;;6215355;23;20162;-85
2022/06/29 00:13:42;;;;;;;10.13;5.17;;;14.60;1.00;;;;;;6214554;23;20420;-87
2022/06/29 00:16:09;;;;;;;11.93;5.40;;;14.60;1.00;;;;;;6215135;23;20952;-87
2022/06/29 00:18:37;;;;;;;7.73;5.67;;;14.50;1.00;;;;;;6214439;23;20181;-87
2022/06/29 00:21:04;;;;;;;10.13;5.77;;;14.50;1.00;;;;;;6214461;23;20169;-86
2022/06/29 00:23:32;;;;;;;;;;;14.40;1.00;;;;;;6215270;23;20440;-89
2022/06/29 00:25:59;;;;;;;;;;;14.30;1.00;;;;;;6215261;23;20170;-88
2022/06/29 00:28:26;;;;;;;7.40;5.77;;;14.30;1.00;;;;;;6214462;23;20048;-86
2022/06/29 00:30:54;;;;;;;12.33;5.30;;;14.30;99.90;;;;;;6214902;23;20161;-87
2022/06/29 00:33:21;;;;;;;9.77;5.73;;;14.30;99.90;;;;;;6214614;23;20482;-85
2022/06/29 00:35:48;;;;;;;13.87;5.37;;;14.30;99.90;;;;;;6214951;23;20175;-88
2022/06/29 00:38:15;;;;;;;11.83;5.80;;;14.20;99.90;;;;;;6214765;23;20169;-87
2022/06/29 00:40:44;;;;;;;8.13;5.10;;;14.20;99.90;;;;;;6214566;23;20164;-86
2022/06/29 00:43:11;;;;;;;11.90;4.87;;;14.20;99.90;;;;;;6214533;23;20596;-87
2022/06/29 00:45:38;;;;;;;15.90;4.80;;;14.10;99.90;;;;;;6214999;23;20161;-87
2022/06/29 00:48:05;;;;;;;13.13;5.20;;;14.10;99.90;;;;;;6214498;23;20219;-86
2022/06/29 00:50:34;;;;;;;12.40;5.53;;;14.00;99.90;;;;;;6214029;23;20180;-87
2022/06/29 00:53:04;;;;;;;9.67;5.30;;;14.00;99.90;;;;;;6214353;23;20166;-87
2022/06/29 00:55:34;;;;;;;8.57;5.70;;;14.00;99.90;;;;;;6214199;23;20176;-87
2022/06/29 00:58:05;;;;;;;15.17;6.37;;;13.90;1.00;;;;;;6214744;23;20218;-86
2022/06/29 01:00:32;;;;;;;10.53;6.63;;;13.90;1.00;;;;;;6214586;23;20180;-86
2022/06/29 01:03:00;;;;;;;13.40;6.70;;;13.90;1.00;;;;;;6214543;23;20167;-86
2022/06/29 01:05:27;;;;;;;13.00;6.80;;;13.90;1.00;;;;;;6214423;23;20183;-86
2022/06/29 01:07:54;;;;;;;;;;;13.90;1.00;;;;;;6214521;23;20223;-88
2022/06/29 01:10:21;;;;;;;;;;;13.80;1.00;;;;;;6214872;23;19911;-86
2022/06/29 01:12:48;;;;;;;;;;;13.80;1.00;;;;;;6215373;23;19912;-86
2022/06/29 01:15:16;;;;;;;;;;;13.80;1.00;;;;;;6215307;23;19916;-87
2022/06/29 01:17:43;;;;;;;;;;;13.80;1.00;;;;;;6214532;23;19912;-88
2022/06/29 01:20:11;;;;;;;;;;;13.80;1.00;;;;;;6214919;23;19916;-86
2022/06/29 01:22:41;;;;;;;17.63;7.10;;;13.80;1.00;;;;;;6213196;23;20390;-87
2022/06/29 01:25:09;;;;;;;18.57;7.30;;;13.80;1.00;;;;;;6214517;23;20168;-87
2022/06/29 01:27:36;;;;;;;11.93;6.83;;;13.80;1.00;;;;;;6214161;23;20599;-86
2022/06/29 01:30:04;;;;;;;12.50;6.60;;;13.70;1.00;;;;;;6213978;23;20168;-85
2022/06/29 01:32:31;;;;;;;18.40;6.90;;;13.70;19.50;;;;;;6214188;23;20248;-85
2022/06/29 01:34:58;;;;;;;14.33;6.50;;;13.70;99.90;;;;;;6214286;23;20530;-87
2022/06/29 01:37:25;;;;;;;14.47;6.27;;;13.70;99.90;;;;;;6213937;23;20171;-88
2022/06/29 01:39:53;;;;;;;17.33;6.80;;;13.70;99.90;;;;;;6214622;23;20195;-86
2022/06/29 01:42:20;;;;;;;14.57;6.60;;;13.70;99.90;;;;;;6214814;23;20171;-86
2022/06/29 01:44:47;;;;;;;18.33;6.53;;;13.60;1.00;;;;;;6213933;23;20520;-86
2022/06/29 01:47:14;;;;;;;13.93;6.23;;;13.60;1.00;;;;;;6214299;23;20191;-86
2022/06/29 01:49:42;;;;;;;17.23;6.63;;;13.50;1.00;;;;;;6214398;23;20529;-85
2022/06/29 01:52:09;;;;;;;18.20;6.07;;;13.50;60.20;;;;;;6213769;23;20604;-85
2022/06/29 01:54:36;;;;;;;16.43;6.30;;;13.50;99.90;;;;;;6215589;23;20167;-87
2022/06/29 01:57:05;;;;;;;12.97;6.23;;;13.40;99.90;;;;;;6215736;23;20175;-88
2022/06/29 01:59:32;;;;;;;19.13;6.00;;;13.40;99.90;;;;;;6215847;23;20480;-88
2022/06/29 02:01:59;;;;;;;14.10;6.00;;;13.40;99.90;;;;;;6216341;23;20597;-86
2022/06/29 02:04:26;;;;;;;19.07;6.00;;;13.30;99.90;;;;;;6215977;23;20606;-86
2022/06/29 02:06:54;;;;;;;13.07;6.00;;;13.30;99.90;;;;;;6216141;23;20188;-86
2022/06/29 02:09:21;;;;;;;14.07;6.50;;;13.30;99.90;;;;;;6216167;23;20175;-87
2022/06/29 02:11:48;;;;;;;18.70;6.27;;;13.30;99.90;;;;;;6216065;23;20528;-87
2022/06/29 02:14:17;;;;;;;23.40;6.17;;;13.30;99.90;;;;;;6215961;23;20176;-85
2022/06/29 02:16:44;;;;;;;22.30;6.30;;;13.20;99.90;;;;;;6216093;23;20171;-86
2022/06/29 02:19:11;;;;;;;15.80;6.47;;;13.20;99.90;;;;;;6215731;23;20196;-86
2022/06/29 02:21:38;;;;;;;;;;;13.20;99.90;;;;;;6216469;23;20169;-87
2022/06/29 02:24:05;;;;;;;15.33;5.83;;;13.20;99.90;;;;;;6216254;23;20128;-87
2022/06/29 02:26:33;;;;;;;15.27;5.93;;;13.10;99.90;;;;;;6216067;23;20175;-86
2022/06/29 02:29:00;;;;;;;15.83;5.80;;;13.10;99.90;;;;;;6215725;23;20171;-86
2022/06/29 02:36:58;;;;;;;10.17;5.53;;;13.10;1.00;;;;;;6215497;23;20156;-86
2022/06/29 02:39:24;;;;;;;;;;;13.20;1.00;;;;;;6215977;23;20186;-86
2022/06/29 02:41:51;;;;;;;;;;;13.10;47.20;;;;;;6215954;23;20022;-86
2022/06/29 02:44:18;;;;;;;;;;;13.10;88.50;;;;;;6216174;23;19912;-86
2022/06/29 02:46:46;;;;;;;;;;;13.10;99.90;;;;;;6215783;23;19912;-85
2022/06/29 02:49:13;;;;;;;;;;;13.10;99.90;;;;;;6215886;23;19912;-86
2022/06/29 02:51:40;;;;;;;;;;;13.10;99.90;;;;;;6216226;23;19919;-86
2022/06/29 02:54:07;;;;;;;;;;;13.10;99.90;;;;;;6216229;23;19936;-88
2022/06/29 02:56:34;;;;;;;;;;;13.20;99.90;;;;;;6222523;23;20216;-86
2022/06/29 02:59:01;;;;;;;;;;;13.20;99.90;;;;;;6215903;23;19923;-86
2022/06/29 03:01:28;;;;;;;;;;;13.20;99.90;;;;;;6216045;23;20251;-85
2022/06/29 03:03:56;;;;;;;;;;;13.30;99.90;;;;;;6216443;23;19934;-84
2022/06/29 03:06:22;;;;;;;;;;;13.30;99.90;;;;;;6214994;23;20303;-86
2022/06/29 03:08:49;;;;;;;;;;;13.40;99.90;;;;;;6216090;23;19923;-85
2022/06/29 03:11:16;;;;;;;;;;;13.40;14.00;;;;;;6215248;23;19915;-86
2022/06/29 03:13:43;;;;;;;;;;;13.50;1.00;;;;;;6216131;23;19994;-85
2022/06/29 03:16:10;;;;;;;;;;;13.50;1.00;;;;;;6215763;23;19911;-85
2022/06/29 03:18:37;;;;;;;;;;;13.60;1.00;;;;;;6215735;23;19912;-87
2022/06/29 03:21:05;;;;;;;;;;;13.70;76.50;;;;;;6215056;23;19999;-84
2022/06/29 03:23:32;;;;;;;;;;;13.70;99.90;;;;;;6215718;23;19915;-86
2022/06/29 03:25:59;;;;;;;;;;;13.80;99.40;;;;;;6216040;23;19915;-85
2022/06/29 03:28:26;;;;;;;;;;;13.90;33.70;;;;;;6215764;23;20319;-86
2022/06/29 03:30:52;;;;;;;;;;;14.00;1.00;;;;;;6215796;23;19919;-86
2022/06/29 03:33:19;;;;;;;;;;;14.00;1.00;;;;;;6215382;23;19912;-86
2022/06/29 03:35:46;;;;;;;;;;;14.10;1.00;;;;;;6215553;23;19911;-85
2022/06/29 03:38:14;;;;;;;;;;;14.20;1.00;;;;;;6215785;23;19918;-86
2022/06/29 03:40:41;;;;;;;;;;;14.30;1.00;;;;;;6215100;23;19931;-86
2022/06/29 03:43:08;;;;;;;;;;;14.40;1.00;;;;;;6215129;23;19919;-86
2022/06/29 03:45:35;;;;;;;;;;;14.50;99.90;;;;;;6214974;23;19912;-85
2022/06/29 03:48:02;;;;;;;;;;;14.90;99.90;;;;;;6215592;23;19912;-88
2022/06/29 03:50:29;;;;;;;;;;;15.70;1.00;;;;;;6214973;23;20330;-88
2022/06/29 03:52:56;;;;;;;9.40;2.90;;;16.50;1.00;;;;;;6214447;23;20333;-87
2022/06/29 03:55:24;;;;;;;8.60;2.80;;;17.50;1.00;;;;;;6215108;23;20020;-86
2022/06/29 03:57:51;;;;;;;6.63;2.83;;;18.60;1.00;;;;;;6214572;23;20177;-87
2022/06/29 04:00:18;;;;;;;;;;;19.70;99.90;;;;;;6215267;23;20020;-89
2022/06/29 04:02:46;;;;;;;;;;;20.90;99.90;;;;;;6214794;23;19958;-87
2022/06/29 04:05:13;;;;;;;;;;;21.90;1.00;;;;;;6215474;23;19911;-88
2022/06/29 04:07:40;;;;;;;;;;;22.70;99.90;;;;;;6215222;23;19912;-87
2022/06/29 04:10:08;;;;;;;10.65;2.47;;;23.60;1.00;;;;;;6214939;23;20175;-86
2022/06/29 04:12:38;;;;;;;14.20;2.67;;;24.30;99.90;;;;;;6215002;23;20169;-88
2022/06/29 04:15:06;;;;;;;;;;;25.00;99.90;;;;;;6215221;23;20355;-88
2022/06/29 04:17:33;;;;;;;;;;;25.60;87.30;;;;;;6215268;23;19915;-86
2022/06/29 04:20:00;;;;;;;6.97;2.30;;;25.90;1.00;;;;;;6214817;23;20182;-87
2022/06/29 04:22:43;;;;;;;4.05;2.10;;;26.30;1.00;;;;;;6229208;23;20149;-91
2022/06/29 04:25:25;;;;;;;6.43;2.47;;;26.70;1.00;;;;;;6240582;22;20165;-88
2022/06/29 04:27:54;;;;;;;4.88;2.25;;;27.10;1.00;;;;;;6236082;23;20188;-89
2022/06/29 04:30:21;;;;;;;5.97;2.22;;;27.40;1.00;;;;;;6214235;23;20172;-88
2022/06/29 04:32:48;;;;;;;;;;;27.80;1.00;;;;;;6214726;23;20165;-85
2022/06/29 04:35:15;;;;;;;2.83;1.90;;;28.00;1.00;;;;;;6215245;23;20411;-86
2022/06/29 04:37:42;;;;;;;5.60;1.80;;;28.30;1.00;;;;;;6215869;23;20215;-86
2022/06/29 04:40:10;;;;;;;3.05;1.52;;;28.70;1.00;;;;;;6215949;23;20628;-86
2022/06/29 04:42:37;;;;;;;5.25;1.85;;;29.10;1.00;;;;;;6215763;23;20165;-86
2022/06/29 04:46:19;;;;;;;2.35;1.33;;;29.60;1.00;;;;;;6214482;23;20485;-85
2022/06/29 04:47:54;;;;;;;2.10;1.58;;;29.90;1.00;;;;;;6214890;23;20581;-86
2022/06/29 04:50:22;;;;;;;3.22;1.98;;;30.40;1.00;;;;;;6216287;23;20017;-89
2022/06/29 04:52:49;;;;;;;3.47;1.58;;;30.80;1.00;;;;;;6214602;23;20171;-87
2022/06/29 04:55:16;;;;;;;3.38;1.67;;;31.30;1.00;;;;;;6215946;23;20167;-86
2022/06/29 04:57:43;;;;;;;4.07;1.70;;;31.60;1.00;;;;;;6215162;23;20167;-88
2022/06/29 05:00:13;;;;;;;3.10;1.65;;;31.80;1.00;;;;;;6216450;23;20185;-88
2022/06/29 05:02:40;;;;;;;4.57;1.70;;;32.10;1.00;;;;;;6214051;23;20172;-87
2022/06/29 05:05:09;;;;;;;4.38;1.75;;;32.20;1.00;;;;;;6214637;23;20168;-88
2022/06/29 05:07:36;;;;;;;4.93;1.50;;;32.40;1.00;;;;;;6215568;23;20214;-88
2022/06/29 05:10:18;;;;;;;3.03;1.40;;;32.60;1.00;;;;;;6233495;23;20223;-91
2022/06/29 05:12:45;;;;;;;1.88;1.38;;;32.60;1.00;;;;;;6234137;23;20204;-91
2022/06/29 05:15:31;;;;;;;;;;;32.80;1.00;;;;;;6237542;22;20165;-92
2022/06/29 05:18:19;;;;;;;6.32;1.70;;;33.00;1.00;;;;;;6230543;22;20213;-89
2022/06/29 05:20:46;;;;;;;3.33;1.40;;;33.00;1.00;;;;;;6231640;23;20181;-85
2022/06/29 05:23:13;;;;;;;2.17;1.25;;;33.00;1.00;;;;;;6215097;23;20157;-86
2022/06/29 05:25:40;;;;;;;2.95;1.30;;;33.10;1.00;;;;;;6215238;23;20165;-87
2022/06/29 05:28:11;;;;;;;3.63;1.30;;;33.30;1.00;;;;;;6217650;23;20163;-86
2022/06/29 05:30:38;;;;;;;4.20;1.60;;;33.30;1.00;;;;;;6217655;23;20159;-85
2022/06/29 05:33:06;;;;;;;4.07;1.38;;;33.00;1.00;;;;;;6218609;23;20169;-85
2022/06/29 05:35:34;;;;;;;2.72;1.40;;;32.80;1.00;;;;;;6218122;23;20149;-85
2022/06/29 05:41:13;;;;;;;5.40;1.67;;;31.80;1.00;;;;;;6238668;23;20196;-86
2022/06/29 05:43:55;;;;;;;;;;;30.50;1.00;;;;;;6241264;23;20044;-91
2022/06/29 05:46:22;;;;;;;;;;;29.30;1.00;;;;;;6225887;23;19962;-86
2022/06/29 05:48:50;;;;;;;;;;;28.20;1.00;;;;;;6217472;23;20229;-86
2022/06/29 05:51:17;;;;;;;;;;;27.60;1.00;;;;;;6218862;23;19911;-85
2022/06/29 05:53:44;;;;;;;6.63;2.17;;;26.90;1.00;;;;;;6219331;23;19919;-86
2022/06/29 05:56:11;;;;;;;;;;;26.40;1.00;;;;;;6217839;23;20451;-86
2022/06/29 05:58:38;;;;;;;;;;;25.90;1.00;;;;;;6217307;23;19912;-85
2022/06/29 06:01:06;;;;;;;4.10;2.10;;;25.50;1.00;;;;;;6217799;23;20554;-86
2022/06/29 06:03:34;;;;;;;4.90;2.22;;;25.30;1.00;;;;;;6217485;23;20450;-86
2022/06/29 06:06:02;;;;;;;3.65;1.90;;;25.20;1.00;;;;;;6216887;23;20168;-85
2022/06/29 06:08:29;;;;;;;5.40;1.80;;;25.00;1.00;;;;;;6217689;23;20153;-86
2022/06/29 06:11:06;;;;;;;3.72;2.30;;;24.70;1.00;;;;;;6240400;23;20163;-87
2022/06/29 06:20:12;;;;;;;9.10;2.10;;;23.60;1.00;;;;;;6075856;23;20176;-86
2022/06/29 06:22:40;;;;;;;8.40;2.03;;;23.30;1.00;;;;;;6084170;23;20153;-85
2022/06/29 06:25:08;;;;;;;4.22;1.85;;;23.10;1.00;;;;;;6216719;23;20156;-86
2022/06/29 06:27:35;;;;;;;4.28;2.35;;;22.90;1.00;;;;;;6215864;23;20161;-85
2022/06/29 06:30:03;;;;;;;3.63;2.08;;;22.80;1.00;;;;;;6215901;23;20162;-84
2022/06/29 06:32:30;;;;;;;4.00;2.00;;;22.70;1.00;;;;;;6215906;23;20164;-85
2022/06/29 06:34:57;;;;;;;5.50;1.77;;;22.70;1.00;;;;;;6215974;23;20169;-85
2022/06/29 06:37:24;;;;;;;3.78;1.90;;;22.60;1.00;;;;;;6216271;23;20165;-86
2022/06/29 06:42:37;;;;;;;4.15;1.85;;;22.90;1.00;;;;;;6216162;23;20156;-86
2022/06/29 06:45:05;;;;;;;3.45;1.83;;;23.20;1.00;;;;;;6216195;23;20671;-85
2022/06/29 06:47:32;;;;;;;3.88;1.80;;;23.70;1.00;;;;;;6216349;23;20525;-85
2022/06/29 06:50:00;;;;;;;2.17;1.55;;;24.40;1.00;;;;;;6216032;23;20623;-89
2022/06/29 06:52:27;;;;;;;2.38;1.50;;;25.30;1.00;;;;;;6216437;23;20167;-86
2022/06/29 06:54:55;;;;;;;5.80;1.60;;;26.30;1.00;;;;;;6216564;23;20161;-87
2022/06/29 06:57:22;;;;;;;2.83;1.58;;;27.30;1.00;;;;;;6216424;23;20176;-86
2022/06/29 06:59:53;;;;;;;1.92;1.30;;;28.40;1.00;;;;;;6216627;23;20150;-86
2022/06/29 07:02:20;;;;;;;2.63;1.27;;;29.50;1.00;;;;;;6215471;23;20627;-87
2022/06/29 07:04:47;;;;;;;2.90;1.20;;;30.30;1.00;;;;;;6215559;23;20154;-87
2022/06/29 07:07:15;;;;;;;2.78;1.55;;;30.90;1.00;;;;;;6215631;23;20196;-86
2022/06/29 07:09:43;;;;;;;1.35;1.25;;;31.10;1.00;;;;;;6215489;23;20171;-87
2022/06/29 07:12:11;;;;;;;2.25;1.25;;;31.30;1.00;;;;;;6215455;23;20175;-86
2022/06/29 07:14:38;;;;;;;2.92;1.42;;;31.40;1.00;;;;;;6215500;23;20172;-87
2022/06/29 07:17:05;;;;;;;2.15;1.20;;;31.70;1.00;;;;;;6215850;23;20161;-86
2022/06/29 07:19:32;;;;;;;3.22;1.30;;;31.90;1.00;;;;;;6215407;23;20168;-86
2022/06/29 07:22:00;;;;;;;4.43;1.40;;;31.60;1.00;;;;;;6215079;23;20243;-87
2022/06/29 07:24:27;;;;;;;2.78;1.17;;;31.30;1.00;;;;;;6215203;23;20604;-89
2022/06/29 07:26:56;;;;;;;1.65;1.20;;;31.00;1.00;;;;;;6215444;23;20199;-88
2022/06/29 07:29:24;;;;;;;1.98;1.38;;;30.50;1.00;;;;;;6214922;23;20192;-86
2022/06/29 07:31:51;;;;;;;1.83;1.40;;;30.00;1.00;;;;;;6215476;23;20223;-87
2022/06/29 07:34:18;;;;;;;1.80;1.38;;;29.60;1.00;;;;;;6215316;23;20162;-88
2022/06/29 07:36:45;;;;;;;3.25;1.42;;;29.10;1.00;;;;;;6215456;23;20161;-86
2022/06/29 07:39:12;;;;;;;3.65;1.50;;;28.90;1.00;;;;;;6215489;23;20153;-86
2022/06/29 07:41:41;;;;;;;3.55;1.90;;;28.50;1.00;;;;;;6215402;23;20185;-88
2022/06/29 07:44:08;;;;;;;4.80;1.58;;;28.10;1.00;;;;;;6215786;23;20168;-86
2022/06/29 07:46:36;;;;;;;;;;;27.50;1.00;;;;;;6215879;23;20012;-85
2022/06/29 07:49:03;;;;;;;;;;;27.10;1.00;;;;;;6215661;23;20299;-86
2022/06/29 07:51:30;;;;;;;;;;;26.70;1.00;;;;;;6215093;23;20227;-86
2022/06/29 07:53:57;;;;;;;;;;;26.40;1.00;;;;;;6215693;23;19959;-86
2022/06/29 07:56:24;;;;;;;2.60;1.45;;;26.10;1.00;;;;;;6215429;23;20158;-87
2022/06/29 07:58:51;;;;;;;3.58;1.80;;;25.90;1.00;;;;;;6215351;23;20172;-86
2022/06/29 08:01:18;;;;;;;2.63;1.60;;;25.80;1.00;;;;;;6214655;23;20184;-86
2022/06/29 08:03:46;;;;;;;2.88;1.80;;;25.70;1.00;;;;;;6215162;23;20169;-86
2022/06/29 08:06:15;;;;;;;;;;;25.90;1.00;;;;;;6215128;23;20267;-86
2022/06/29 08:08:43;;;;;;;4.00;1.60;;;26.60;1.00;;;;;;6215467;23;20395;-86
2022/06/29 08:11:10;;;;;;;3.03;1.55;;;27.60;1.00;;;;;;6215487;23;20149;-86
2022/06/29 08:13:38;;;;;;;2.47;1.60;;;28.60;1.00;;;;;;6215385;23;20165;-87
2022/06/29 08:16:06;;;;;;;2.90;1.60;;;29.40;1.00;;;;;;6214942;23;20182;-86
2022/06/29 08:18:33;;;;;;;3.05;1.60;;;29.90;1.00;;;;;;6215410;23;20016;-87
2022/06/29 08:21:02;;;;;;;2.83;1.45;;;30.30;1.00;;;;;;6215048;23;20233;-86
2022/06/29 08:23:29;;;;;;;3.67;1.30;;;30.50;1.00;;;;;;6214260;23;20533;-86
2022/06/29 08:25:57;;;;;;;4.18;1.55;;;30.50;1.00;;;;;;6214944;23;20165;-89
2022/06/29 08:28:25;;;;;;;;;;;30.20;1.00;;;;;;6215321;23;20589;-88
2022/06/29 08:30:51;;;;;;;;;;;29.70;1.00;;;;;;6214949;23;19951;-86
2022/06/29 08:33:21;;;;;;;2.15;1.73;;;29.20;1.00;;;;;;6215104;23;19996;-86
2022/06/29 08:35:48;;;;;;;2.40;1.60;;;28.60;1.00;;;;;;6214437;23;20173;-87
2022/06/29 08:38:36;;;;;;;2.85;1.55;;;28.20;1.00;;;;;;6230190;23;20165;-88
2022/06/29 08:41:54;;;;;;;2.20;1.52;;;28.10;1.00;;;;;;6236060;23;20185;-89
2022/06/29 08:44:22;;;;;;;1.92;1.30;;;28.30;1.00;;;;;;6189538;23;20161;-85
2022/06/29 08:46:49;;;;;;;3.67;1.40;;;28.40;1.00;;;;;;6220153;23;20173;-86
2022/06/29 08:49:16;;;;;;;2.22;1.67;;;28.40;1.00;;;;;;6214680;23;20600;-87
2022/06/29 08:51:45;;;;;;;2.20;1.50;;;28.60;1.00;;;;;;6214421;23;20176;-87
2022/06/29 08:54:15;;;;;;;3.15;1.40;;;29.10;1.00;;;;;;6214710;23;20489;-86
2022/06/29 08:57:38;;;;;;;1.90;1.40;;;29.60;1.00;;;;;;6220495;23;20145;-86
2022/06/29 09:00:06;;;;;;;;;;;30.10;1.00;;;;;;6214840;23;20459;-85
2022/06/29 09:11:50;;;;;;;;;;;30.20;1.00;;;;;;6219389;23;19958;-85
2022/06/29 09:14:20;;;;;;;;;;;30.10;1.00;;;;;;6211525;23;19919;-85
2022/06/29 09:16:55;;;;;;;;;;;30.10;1.00;;;;;;6217290;23;19911;-85
2022/06/29 09:19:23;;;;;;;3.10;1.60;;;29.70;1.00;;;;;;6216315;23;20499;-89
2022/06/29 09:21:51;;;;;;;;;;;29.30;1.00;;;;;;6216538;23;20016;-87
2022/06/29 09:27:59;;;;;;;1.67;1.38;;;28.40;1.00;;;;;;6241135;23;20169;-90
2022/06/29 09:31:14;;;;;;;4.15;1.70;;;28.50;1.00;;;;;;6231024;23;20184;-88
2022/06/29 09:37:06;;;;;;;2.60;1.60;;;29.00;1.00;;;;;;6110164;23;20169;-87
2022/06/29 09:39:34;;;;;;;2.15;1.35;;;29.20;1.00;;;;;;6219500;23;20166;-86
2022/06/29 09:42:01;;;;;;;1.98;1.48;;;29.40;1.00;;;;;;6216134;23;20251;-86
2022/06/29 09:44:33;;;;;;;2.25;1.55;;;29.60;1.00;;;;;;6230141;23;20165;-88
2022/06/29 09:54:13;;;;;;;;;;;;;;;;;;;;;
2022/06/29 09:56:51;;;;;;;;;;;28.80;1.00;;;;;;6112494;23;19925;-87
2022/06/29 10:02:50;;;;;;;;;;;28.90;1.00;;;;;;6184759;23;19919;-88
2022/06/29 10:06:05;;;;;;;;;;;29.30;1.00;;;;;;6239797;23;19900;-90
2022/06/29 10:15:01;;;;;;;;;;;29.60;1.00;;;;;;6181074;23;20263;-88
2022/06/29 10:17:36;;;;;;;;;;;29.40;1.00;;;;;;6187188;23;19959;-87
2022/06/29 10:20:09;;;;;;;;;;;29.20;1.00;;;;;;6186427;23;19912;-89
2022/06/29 10:25:27;;;;;;;;;;;29.50;1.00;;;;;;6196659;23;19912;-87
2022/06/29 10:28:08;;;;;;;;;;;29.50;1.00;;;;;;6186062;23;19918;-86
2022/06/29 10:30:53;;;;;;;;;;;29.40;1.00;;;;;;6203573;23;19908;-90
2022/06/29 10:40:22;;;;;;;3.10;1.50;;;28.20;1.00;;;;;;6196954;23;20220;-89
2022/06/29 10:43:17;;;;;;;4.50;1.50;;;28.00;1.00;;;;;;6205919;23;20197;-91
2022/06/29 10:56:04;;;;;;;3.00;1.67;;;28.10;1.00;;;;;;6056354;23;20168;-86
2022/06/29 10:59:34;;;;;;;3.33;1.50;;;28.30;1.00;;;;;;6200292;23;20192;-90
2022/06/29 11:13:38;;;;;;;;;;;;;;;;;;;;;
2022/06/29 11:16:16;;;;;;;4.03;1.55;;;28.40;1.00;;;;;;6175148;23;20341;-91
2022/06/29 11:18:43;;;;;;;;;;;28.40;1.00;;;;;;6185673;23;20158;-88
2022/06/29 11:21:10;;;;;;;1.77;1.40;;;28.60;1.00;;;;;;6204951;23;20028;-88
2022/06/29 11:34:03;;;;;;;2.05;1.40;;;29.60;1.00;;;;;;6120465;23;20155;-89
2022/06/29 11:46:35;;;;;;;2.63;1.60;;;29.50;1.00;;;;;;6035370;23;20190;-89
2022/06/29 11:51:51;;;;;;;2.28;1.25;;;29.80;1.00;;;;;;6184868;23;20153;-86
2022/06/29 11:54:39;;;;;;;3.85;1.38;;;30.00;1.00;;;;;;6196148;23;20226;-88
2022/06/29 11:57:50;;;;;;;;;;;;;;;;;;;;;
2022/06/29 12:01:41;;;;;;;2.55;1.27;;;30.10;1.00;;;;;;6204732;23;20165;-90
2022/06/29 12:07:41;;;;;;;3.22;1.42;;;29.20;1.00;;;;;;6142165;23;20179;-86
2022/06/29 12:17:16;;;;;;;2.03;1.48;;;29.30;1.00;;;;;;6209130;23;20149;-87
2022/06/29 12:23:55;;;;;;;2.28;1.60;;;29.40;1.00;;;;;;6033033;23;20227;-88
2022/06/29 12:26:58;;;;;;;3.03;1.60;;;29.30;1.00;;;;;;6033480;23;20655;-89
2022/06/29 12:32:46;;;;;;;3.33;1.65;;;28.70;1.00;;;;;;6145053;23;20176;-85
2022/06/29 12:35:49;;;;;;;1.50;1.40;;;28.50;1.00;;;;;;6241973;23;20197;-88
2022/06/29 12:38:27;;;;;;;2.80;1.50;;;28.60;1.00;;;;;;6241861;23;20164;-88
2022/06/29 12:41:04;;;;;;;4.45;1.60;;;28.70;1.00;;;;;;6242240;23;20156;-86
2022/06/29 12:43:53;;;;;;;1.92;1.55;;;28.70;1.00;;;;;;6236837;23;20200;-88
2022/06/29 12:46:46;;;;;;;1.50;1.40;;;28.60;1.00;;;;;;6242018;23;20155;-89
2022/06/29 12:49:25;;;;;;;1.83;1.42;;;28.70;1.00;;;;;;6238422;23;20145;-87
2022/06/29 12:52:07;;;;;;;2.33;1.50;;;28.90;1.00;;;;;;6242443;22;20148;-86
2022/06/29 12:54:57;;;;;;;1.98;1.40;;;29.00;1.00;;;;;;6241725;23;20159;-88
2022/06/29 13:00:33;;;;;;;2.08;1.50;;;28.90;1.00;;;;;;6240707;22;20169;-83
2022/06/29 13:06:12;;;;;;;2.95;1.65;;;28.80;1.00;;;;;;6241110;23;20164;-88
2022/06/29 13:08:40;;;;;;;1.75;1.45;;;29.00;1.00;;;;;;6234031;22;20454;-86
2022/06/29 13:11:08;;;;;;;4.63;1.80;;;28.90;1.00;;;;;;6214022;23;20169;-86
2022/06/29 13:13:39;;;;;;;2.10;1.58;;;28.80;1.00;;;;;;6214673;23;20165;-90
2022/06/29 13:16:07;;;;;;;1.70;1.40;;;28.70;1.00;;;;;;6213977;23;20188;-84
2022/06/29 13:18:34;;;;;;;2.50;1.48;;;28.60;1.00;;;;;;6223608;23;20169;-84
2022/06/29 13:21:01;;;;;;;2.67;1.38;;;28.70;1.00;;;;;;6215993;23;20485;-86
2022/06/29 13:23:29;;;;;;;2.35;1.50;;;28.80;1.00;;;;;;6213511;23;20187;-89
2022/06/29 13:25:57;;;;;;;3.40;1.50;;;28.50;1.00;;;;;;6213957;23;20169;-85
2022/06/29 13:28:27;;;;;;;1.50;1.40;;;28.40;1.00;;;;;;6214062;23;20167;-86
2022/06/29 13:30:56;;;;;;;2.22;1.55;;;28.30;1.00;;;;;;6213923;23;20496;-87
2022/06/29 13:33:24;;;;;;;4.47;1.45;;;28.10;1.00;;;;;;6213906;23;20530;-85
2022/06/29 13:35:51;;;;;;;2.13;1.38;;;28.00;1.00;;;;;;6213860;23;20161;-90
2022/06/29 13:38:18;;;;;;;3.55;1.75;;;27.90;1.00;;;;;;6213875;23;20188;-82
2022/06/29 13:40:45;;;;;;;2.35;1.50;;;27.90;1.00;;;;;;6213904;23;20527;-83
2022/06/29 13:43:12;;;;;;;2.35;1.70;;;27.80;1.00;;;;;;6213094;23;20189;-84
2022/06/29 13:45:40;;;;;;;2.05;1.40;;;27.60;1.00;;;;;;6213256;23;20635;-85
2022/06/29 13:48:09;;;;;;;2.45;1.70;;;27.50;1.00;;;;;;6213693;23;20161;-83
2022/06/29 13:50:36;;;;;;;2.80;1.60;;;27.30;1.00;;;;;;6214717;23;20616;-83
2022/06/29 13:53:03;;;;;;;9.00;2.60;;;27.30;1.00;;;;;;6215608;23;20180;-82
2022/06/29 13:55:30;;;;;;;2.95;1.83;;;27.30;1.00;;;;;;6216254;23;20169;-82
2022/06/29 13:57:57;;;;;;;5.00;1.77;;;27.30;1.00;;;;;;6216104;23;20172;-82
2022/06/29 14:00:24;;;;;;;6.43;2.28;;;27.30;1.00;;;;;;6219511;23;20161;-84
2022/06/29 14:02:51;;;;;;;5.07;1.77;;;27.20;1.00;;;;;;6215341;23;20189;-84
2022/06/29 14:05:19;;;;;;;6.85;2.00;;;27.30;1.00;;;;;;6216089;23;20165;-84
2022/06/29 14:07:47;;;;;;;3.50;1.98;;;27.20;1.00;;;;;;6215987;23;20189;-84
2022/06/29 14:10:14;;;;;;;2.95;2.00;;;27.00;1.00;;;;;;6215517;23;20219;-86
2022/06/29 14:12:41;;;;;;;3.95;2.00;;;26.90;1.00;;;;;;6215811;23;20172;-86
2022/06/29 14:15:09;;;;;;;5.55;2.20;;;26.80;1.00;;;;;;6215886;23;20467;-89
2022/06/29 14:17:36;;;;;;;2.95;2.05;;;26.80;1.00;;;;;;6215710;23;20211;-84
2022/06/29 14:20:04;;;;;;;4.65;2.15;;;26.80;1.00;;;;;;6215386;23;20216;-84
2022/06/29 14:22:33;;;;;;;3.63;1.80;;;26.80;1.00;;;;;;6215703;23;20478;-84
2022/06/29 14:25:01;;;;;;;6.28;1.92;;;26.90;1.00;;;;;;6215156;23;20223;-86
2022/06/29 14:27:28;;;;;;;2.90;1.80;;;27.00;1.00;;;;;;6215738;23;20215;-83
2022/06/29 14:29:55;;;;;;;3.30;2.05;;;27.10;1.00;;;;;;6214681;23;20165;-89
2022/06/29 14:32:22;;;;;;;3.03;1.75;;;27.20;1.00;;;;;;6214345;23;20168;-84
2022/06/29 14:34:49;;;;;;;3.97;2.30;;;27.30;1.00;;;;;;6214625;23;20165;-84
2022/06/29 14:37:16;;;;;;;4.45;2.63;;;27.40;1.00;;;;;;6214656;23;20165;-84
2022/06/29 14:39:46;;;;;;;3.17;2.10;;;27.40;1.00;;;;;;6215310;23;20165;-83
2022/06/29 14:42:14;;;;;;;2.78;2.15;;;27.30;1.00;;;;;;6215340;23;20223;-82
2022/06/29 14:44:41;;;;;;;3.28;1.70;;;27.20;1.00;;;;;;6215805;23;20193;-85
2022/06/29 14:47:08;;;;;;;4.50;1.70;;;27.30;1.00;;;;;;6215448;23;20161;-82
2022/06/29 14:49:35;;;;;;;2.58;1.63;;;27.30;1.00;;;;;;6215650;23;20230;-82
2022/06/29 14:52:03;;;;;;;2.22;1.50;;;27.40;1.00;;;;;;6215674;23;20165;-81
2022/06/29 14:54:30;;;;;;;2.00;1.50;;;27.50;1.00;;;;;;6215920;23;20247;-87
2022/06/29 14:56:59;;;;;;;2.55;1.73;;;27.60;1.00;;;;;;6215759;23;20473;-86
2022/06/29 14:59:26;;;;;;;1.92;1.27;;;27.70;1.00;;;;;;6215305;23;20200;-83
2022/06/29 15:01:53;;;;;;;2.03;1.30;;;27.80;1.00;;;;;;6215084;23;20508;-82
2022/06/29 15:04:20;;;;;;;3.05;1.30;;;27.90;1.00;;;;;;6215427;23;20208;-85
2022/06/29 15:06:47;;;;;;;1.80;1.40;;;27.90;1.00;;;;;;6215504;23;20216;-82
2022/06/29 15:09:14;;;;;;;2.03;1.52;;;28.00;1.00;;;;;;6215410;23;20165;-82
2022/06/29 15:11:42;;;;;;;2.55;1.58;;;28.00;1.00;;;;;;6215579;23;20173;-82
2022/06/29 15:14:11;;;;;;;3.03;1.50;;;27.80;1.00;;;;;;6214870;23;20176;-82
2022/06/29 15:16:38;;;;;;;2.10;1.40;;;27.80;1.00;;;;;;6215322;23;20231;-83
2022/06/29 15:19:07;;;;;;;3.45;1.60;;;27.70;1.00;;;;;;6215135;23;20483;-86
2022/06/29 15:21:34;;;;;;;3.40;1.88;;;27.70;1.00;;;;;;6213313;23;20244;-83
2022/06/29 15:24:02;;;;;;;3.75;1.73;;;27.60;1.00;;;;;;6214017;23;20193;-84
2022/06/29 15:26:29;;;;;;;1.50;1.33;;;27.50;1.00;;;;;;6213556;23;20165;-84
2022/06/29 15:28:56;;;;;;;3.53;1.40;;;27.40;1.00;;;;;;6213693;23;20168;-88
2022/06/29 15:31:31;;;;;;;2.00;1.60;;;27.30;1.00;;;;;;6213053;23;20176;-84
2022/06/29 15:39:29;;;;;;;;;;;26.80;1.00;;;;;;6213728;23;20034;-85
2022/06/29 15:41:59;;;;;;;;;;;26.70;1.00;;;;;;6215341;23;19912;-89
2022/06/29 15:44:26;;;;;;;;;;;26.60;1.00;;;;;;6215568;23;19935;-85
2022/06/29 15:46:54;;;;;;;;;;;26.50;1.00;;;;;;6213613;23;20115;-85
2022/06/29 15:49:21;;;;;;;;;;;26.40;1.00;;;;;;6215603;23;19915;-85